Time;durP1;ratioP1;P1;durP2;ratioP2;P2;SDS_P1;SDS_P2;PMS_P1;PMS_P2;Temp;Humidity;BMP_temperature;BMP_pressure;BME280_temperature;BME280_humidity;BME280_pressure;Samples;Min_cycle;Max_cycle;Signal;HPM_P1;HPM_P2
2021/04/16 00:00:53;;;;;;;17.00;9.80;;;10.00;93.50;;;;;;5076023;28;20035;-86
2021/04/16 00:03:19;;;;;;;12.00;8.10;;;10.10;93.40;;;;;;5076139;28;20410;-86
2021/04/16 00:05:45;;;;;;;15.23;8.93;;;10.10;93.40;;;;;;5075784;28;20543;-86
2021/04/16 00:08:24;;;;;;;14.88;9.55;;;10.10;93.40;;;;;;5093807;28;20036;-86
2021/04/16 00:10:58;;;;;;;11.95;8.98;;;10.00;93.50;;;;;;5075623;28;20048;-86
2021/04/16 00:13:24;;;;;;;15.60;9.82;;;10.00;93.60;;;;;;5075968;28;20123;-86
2021/04/16 00:15:51;;;;;;;17.92;11.73;;;10.00;93.70;;;;;;5093767;28;20036;-85
2021/04/16 00:18:20;;;;;;;17.73;11.80;;;9.90;93.60;;;;;;5094037;28;20082;-86
2021/04/16 00:20:46;;;;;;;13.82;10.40;;;10.00;93.70;;;;;;5075700;28;20039;-86
2021/04/16 00:23:12;;;;;;;15.95;9.80;;;9.90;93.70;;;;;;5075413;28;20028;-86
2021/04/16 00:25:38;;;;;;;15.50;8.98;;;9.90;93.60;;;;;;5075874;28;20440;-86
2021/04/16 00:28:06;;;;;;;14.48;9.70;;;10.00;93.60;;;;;;5076034;28;20116;-86
2021/04/16 00:30:40;;;;;;;16.02;10.13;;;9.90;93.70;;;;;;5075967;28;20377;-86
2021/04/16 00:33:06;;;;;;;15.75;9.48;;;9.90;93.70;;;;;;5075894;28;20121;-86
2021/04/16 00:35:32;;;;;;;15.27;10.43;;;9.90;93.70;;;;;;5075827;28;20047;-86
2021/04/16 00:37:59;;;;;;;16.75;10.60;;;9.80;94.10;;;;;;5076632;28;20040;-86
2021/04/16 00:40:29;;;;;;;13.75;9.45;;;9.80;93.80;;;;;;5075850;28;20079;-86
2021/04/16 00:42:57;;;;;;;15.80;9.48;;;9.80;93.80;;;;;;5075810;28;20119;-86
2021/04/16 00:45:24;;;;;;;13.25;9.82;;;9.80;93.80;;;;;;5075924;28;20043;-86
2021/04/16 00:47:52;;;;;;;16.90;9.55;;;9.80;94.00;;;;;;5075847;28;20032;-86
2021/04/16 00:50:22;;;;;;;13.90;9.48;;;9.80;94.10;;;;;;5075653;28;20126;-87
2021/04/16 00:52:49;;;;;;;11.20;7.72;;;9.80;94.10;;;;;;5075942;28;20028;-86
2021/04/16 00:55:16;;;;;;;12.48;9.13;;;9.80;94.00;;;;;;5075679;28;20032;-86
2021/04/16 00:57:42;;;;;;;12.07;8.07;;;9.80;94.10;;;;;;5075713;28;20112;-86
2021/04/16 01:00:10;;;;;;;15.05;10.00;;;9.80;94.00;;;;;;5075706;28;20474;-86
2021/04/16 01:02:35;;;;;;;14.23;9.07;;;9.80;94.30;;;;;;5093679;28;20497;-86
2021/04/16 01:05:02;;;;;;;12.85;7.97;;;9.70;94.30;;;;;;5077120;28;20035;-86
2021/04/16 01:07:28;;;;;;;12.23;8.70;;;9.70;94.30;;;;;;5097687;28;20028;-86
2021/04/16 01:09:54;;;;;;;14.85;9.05;;;9.70;94.30;;;;;;5097446;28;20032;-86
2021/04/16 01:12:20;;;;;;;12.50;7.93;;;9.70;94.50;;;;;;5079182;28;20036;-86
2021/04/16 01:14:50;;;;;;;12.43;7.65;;;9.80;94.40;;;;;;5079274;28;20539;-86
2021/04/16 01:17:16;;;;;;;14.07;8.75;;;9.70;94.20;;;;;;5097451;28;20565;-86
2021/04/16 01:20:14;;;;;;;14.65;9.07;;;9.80;94.30;;;;;;5079241;28;20478;-86
2021/04/16 01:22:58;;;;;;;13.10;8.80;;;9.80;94.30;;;;;;5096468;28;20116;-86
2021/04/16 01:25:25;;;;;;;17.48;10.02;;;9.80;94.20;;;;;;5078921;28;20028;-86
2021/04/16 01:27:51;;;;;;;15.88;9.43;;;9.70;94.20;;;;;;5078670;28;20090;-86
2021/04/16 01:30:22;;;;;;;16.60;9.50;;;9.70;94.20;;;;;;5078656;28;20032;-85
2021/04/16 01:32:48;;;;;;;16.45;10.07;;;9.70;94.20;;;;;;5078869;28;20034;-85
2021/04/16 01:35:20;;;;;;;17.08;10.00;;;9.70;94.10;;;;;;5085055;28;20043;-85
2021/04/16 01:37:45;;;;;;;18.98;9.90;;;9.70;94.10;;;;;;5099244;28;20385;-84
2021/04/16 01:40:13;;;;;;;16.20;10.55;;;9.70;94.10;;;;;;5117286;28;20024;-85
2021/04/16 01:42:39;;;;;;;19.30;11.20;;;9.70;94.10;;;;;;5098996;28;20481;-85
2021/04/16 01:45:14;;;;;;;17.35;10.10;;;9.70;94.20;;;;;;5098847;28;20123;-85
2021/04/16 01:47:40;;;;;;;19.00;11.13;;;9.70;94.10;;;;;;5098988;28;20027;-86
2021/04/16 01:50:06;;;;;;;21.40;10.88;;;9.70;94.00;;;;;;5099243;28;20035;-85
2021/04/16 01:52:33;;;;;;;17.33;10.15;;;9.70;94.10;;;;;;5098585;28;20477;-85
2021/04/16 01:54:59;;;;;;;16.80;9.70;;;9.70;94.00;;;;;;5098612;28;20114;-85
2021/04/16 01:57:31;;;;;;;14.15;8.27;;;9.70;93.90;;;;;;5098430;28;20027;-85
2021/04/16 01:59:58;;;;;;;9.65;6.80;;;9.80;93.90;;;;;;5098618;28;20028;-84
2021/04/16 02:02:30;;;;;;;12.00;6.85;;;9.80;93.90;;;;;;5114699;28;20035;-86
2021/04/16 02:04:56;;;;;;;10.02;6.28;;;9.70;93.90;;;;;;5115202;28;20042;-84
2021/04/16 02:07:23;;;;;;;10.10;7.30;;;9.70;93.90;;;;;;5115592;28;20031;-84
2021/04/16 02:09:49;;;;;;;8.93;6.88;;;9.70;94.30;;;;;;5115317;28;20042;-85
2021/04/16 02:12:17;;;;;;;10.57;6.88;;;9.70;94.10;;;;;;5107872;28;20043;-86
2021/04/16 02:14:43;;;;;;;6.85;5.53;;;9.70;94.30;;;;;;5097857;28;20031;-84
2021/04/16 02:17:16;;;;;;;9.48;6.63;;;9.70;94.10;;;;;;5096992;28;20028;-84
2021/04/16 02:19:42;;;;;;;10.15;7.05;;;9.70;94.00;;;;;;5098081;28;20045;-84
2021/04/16 02:22:20;;;;;;;11.02;8.25;;;9.60;94.40;;;;;;5116046;28;20500;-85
2021/04/16 02:24:46;;;;;;;10.35;7.63;;;9.60;94.70;;;;;;5097846;28;20070;-85
2021/04/16 02:27:13;;;;;;;10.13;7.57;;;9.50;94.70;;;;;;5098226;28;20092;-85
2021/04/16 02:29:39;;;;;;;12.25;8.18;;;9.50;94.60;;;;;;5116261;28;20066;-84
2021/04/16 02:32:06;;;;;;;13.68;7.93;;;9.50;94.70;;;;;;5111937;28;20062;-86
2021/04/16 02:34:31;;;;;;;16.17;11.13;;;9.50;94.60;;;;;;5115952;27;20481;-85
2021/04/16 02:37:00;;;;;;;13.85;9.85;;;9.40;94.90;;;;;;5118565;27;20077;-85
2021/04/16 02:39:27;;;;;;;19.67;12.55;;;9.50;94.90;;;;;;5101738;27;20042;-86
2021/04/16 02:41:53;;;;;;;17.30;11.50;;;9.40;94.80;;;;;;5118333;27;20031;-85
2021/04/16 02:44:20;;;;;;;17.02;10.80;;;9.40;94.70;;;;;;5113094;28;20034;-86
2021/04/16 02:46:45;;;;;;;14.85;10.90;;;9.40;95.10;;;;;;5112066;27;20488;-85
2021/04/16 02:49:12;;;;;;;14.50;10.45;;;9.40;95.00;;;;;;5117314;27;20035;-85
2021/04/16 02:51:37;;;;;;;12.32;8.90;;;9.40;95.10;;;;;;5117260;27;20027;-85
2021/04/16 02:54:04;;;;;;;12.70;8.98;;;9.40;95.00;;;;;;5135775;27;20027;-85
2021/04/16 02:56:30;;;;;;;16.23;10.23;;;9.40;95.10;;;;;;5116969;27;20110;-85
2021/04/16 02:58:57;;;;;;;11.57;9.18;;;9.20;95.40;;;;;;5118113;27;20118;-85
2021/04/16 03:01:23;;;;;;;14.23;9.95;;;9.30;95.20;;;;;;5118013;27;20439;-86
2021/04/16 03:03:48;;;;;;;13.07;9.75;;;9.20;95.30;;;;;;5117718;27;20039;-86
2021/04/16 03:06:14;;;;;;;9.93;8.60;;;9.20;95.40;;;;;;5133648;27;20084;-86
2021/04/16 03:08:40;;;;;;;15.68;8.55;;;9.20;95.30;;;;;;5097767;28;20122;-88
2021/04/16 03:11:08;;;;;;;15.55;10.02;;;9.30;95.20;;;;;;5097949;28;20123;-88
2021/04/16 03:13:34;;;;;;;16.75;9.90;;;9.30;95.40;;;;;;5097591;28;20061;-88
2021/04/16 03:16:00;;;;;;;13.13;9.00;;;9.20;95.60;;;;;;5115671;28;20028;-86
2021/04/16 03:18:26;;;;;;;11.82;8.07;;;9.30;95.50;;;;;;5097372;28;20034;-87
2021/04/16 03:20:52;;;;;;;14.63;9.00;;;9.30;95.40;;;;;;5096990;28;20484;-87
2021/04/16 03:23:17;;;;;;;10.88;8.23;;;9.30;95.40;;;;;;5097519;28;20062;-87
2021/04/16 03:25:43;;;;;;;12.38;8.15;;;9.40;95.30;;;;;;5096939;28;20066;-87
2021/04/16 03:28:10;;;;;;;13.55;8.43;;;9.40;95.30;;;;;;5096976;28;20696;-87
2021/04/16 03:30:35;;;;;;;11.98;8.00;;;9.40;95.20;;;;;;5096890;28;20035;-87
2021/04/16 03:33:01;;;;;;;15.20;9.57;;;9.50;95.00;;;;;;5115155;28;20024;-87
2021/04/16 03:35:27;;;;;;;12.25;8.10;;;9.40;95.30;;;;;;5115201;28;20044;-87
2021/04/16 03:37:53;;;;;;;11.35;7.40;;;9.40;95.20;;;;;;5096671;28;20116;-86
2021/04/16 03:40:23;;;;;;;11.82;8.10;;;9.50;95.10;;;;;;5080163;28;20503;-85
2021/04/16 03:42:49;;;;;;;13.52;8.32;;;9.50;94.90;;;;;;5099555;28;20044;-86
2021/04/16 03:45:15;;;;;;;10.98;7.93;;;9.50;95.00;;;;;;5076783;28;20127;-86
2021/04/16 03:47:45;;;;;;;10.98;7.75;;;9.50;95.10;;;;;;5094359;28;20522;-86
2021/04/16 03:50:13;;;;;;;13.73;8.95;;;9.60;94.90;;;;;;5076696;28;20036;-87
2021/04/16 03:52:39;;;;;;;13.85;9.10;;;9.60;94.90;;;;;;5076216;28;20474;-86
2021/04/16 03:55:07;;;;;;;15.75;10.60;;;9.60;94.80;;;;;;5075964;28;20039;-86
2021/04/16 03:57:33;;;;;;;13.80;9.57;;;9.50;95.10;;;;;;5075969;28;20028;-86
2021/04/16 03:59:59;;;;;;;15.63;10.65;;;9.60;95.10;;;;;;5075973;28;20085;-86
2021/04/16 04:02:25;;;;;;;17.63;10.30;;;9.50;95.10;;;;;;5093920;28;20032;-86
2021/04/16 04:04:51;;;;;;;15.65;10.02;;;9.60;95.10;;;;;;5076145;28;20074;-86
2021/04/16 04:07:17;;;;;;;13.85;9.60;;;9.60;95.10;;;;;;5086074;28;20035;-86
2021/04/16 04:09:43;;;;;;;15.88;9.90;;;9.60;95.10;;;;;;5095456;28;20048;-86
2021/04/16 04:12:10;;;;;;;17.20;10.93;;;9.60;95.10;;;;;;5079218;28;20169;-86
2021/04/16 04:14:35;;;;;;;15.00;9.63;;;9.60;95.30;;;;;;5055510;28;20036;-76
2021/04/16 04:17:04;;;;;;;19.58;10.38;;;9.50;95.40;;;;;;5055210;28;20082;-84
2021/04/16 04:19:31;;;;;;;15.05;9.55;;;9.60;95.40;;;;;;5055229;28;20028;-84
2021/04/16 04:21:59;;;;;;;13.07;8.70;;;9.60;95.20;;;;;;5082965;28;20125;-83
2021/04/16 04:24:25;;;;;;;14.18;9.05;;;9.70;95.10;;;;;;5075034;28;20032;-83
2021/04/16 04:26:51;;;;;;;14.43;9.38;;;9.80;95.00;;;;;;5093317;28;20393;-84
2021/04/16 04:29:21;;;;;;;13.88;9.27;;;9.70;95.10;;;;;;5075211;28;20047;-80
2021/04/16 04:31:47;;;;;;;25.95;12.23;;;9.80;94.90;;;;;;5075411;28;20031;-81
2021/04/16 04:34:22;;;;;;;26.15;15.20;;;9.90;94.80;;;;;;5100261;28;20032;-80
2021/04/16 04:36:50;;;;;;;17.85;11.75;;;9.90;94.90;;;;;;5113807;28;20052;-80
2021/04/16 04:39:16;;;;;;;18.38;11.18;;;9.90;94.70;;;;;;5095588;28;20027;-82
2021/04/16 04:41:43;;;;;;;16.83;10.43;;;9.90;95.10;;;;;;5099776;28;20096;-81
2021/04/16 04:44:09;;;;;;;19.90;10.85;;;9.90;95.10;;;;;;5118092;28;20024;-80
2021/04/16 04:46:36;;;;;;;17.42;10.70;;;9.80;95.10;;;;;;5078844;28;20035;-81
2021/04/16 04:49:04;;;;;;;23.25;12.38;;;9.90;95.10;;;;;;5059567;28;20032;-81
2021/04/16 04:51:30;;;;;;;20.60;10.60;;;9.80;95.30;;;;;;5059254;28;20062;-81
2021/04/16 04:53:55;;;;;;;18.52;11.52;;;9.90;95.20;;;;;;5083603;28;20024;-81
2021/04/16 04:56:21;;;;;;;23.20;11.63;;;9.90;95.30;;;;;;5079266;28;20064;-80
2021/04/16 04:58:47;;;;;;;24.77;10.13;;;10.00;95.10;;;;;;5079460;28;20031;-81
2021/04/16 05:01:12;;;;;;;23.52;11.32;;;10.10;95.00;;;;;;5072737;28;20044;-82
2021/04/16 05:03:38;;;;;;;22.65;15.18;;;10.10;94.90;;;;;;5077447;28;20035;-87
2021/04/16 05:06:04;;;;;;;23.95;15.55;;;10.20;94.90;;;;;;5069351;28;20039;-84
2021/04/16 05:08:30;;;;;;;22.23;14.10;;;10.20;94.90;;;;;;5078875;28;20049;-84
2021/04/16 05:10:55;;;;;;;17.58;13.18;;;10.30;95.00;;;;;;5066471;28;20399;-83
2021/04/16 05:13:21;;;;;;;18.23;13.30;;;10.30;94.90;;;;;;5099030;28;20472;-82
2021/04/16 05:15:47;;;;;;;18.02;13.25;;;10.40;95.10;;;;;;5095312;28;20058;-82
2021/04/16 05:18:12;;;;;;;20.15;13.05;;;10.50;94.70;;;;;;5096057;28;20032;-82
2021/04/16 05:20:38;;;;;;;26.15;15.25;;;10.40;94.90;;;;;;5097038;28;20473;-84
2021/04/16 05:23:04;;;;;;;22.48;12.98;;;10.40;95.10;;;;;;5078680;28;20404;-85
2021/04/16 05:25:29;;;;;;;22.58;15.55;;;10.50;95.10;;;;;;5078697;28;20036;-84
2021/04/16 05:27:55;;;;;;;23.50;14.57;;;10.50;95.40;;;;;;5095911;28;20036;-84
2021/04/16 05:30:21;;;;;;;25.60;14.77;;;10.40;95.30;;;;;;5079044;28;20127;-84
2021/04/16 05:32:47;;;;;;;21.85;15.15;;;10.50;95.20;;;;;;5078460;28;20038;-84
2021/04/16 05:35:14;;;;;;;23.45;15.82;;;10.60;95.20;;;;;;5081476;28;20101;-84
2021/04/16 05:37:40;;;;;;;22.30;15.65;;;10.50;95.10;;;;;;5095378;28;20074;-84
2021/04/16 05:40:07;;;;;;;23.77;16.20;;;10.50;95.20;;;;;;5059946;28;20064;-85
2021/04/16 05:42:34;;;;;;;28.13;17.38;;;10.60;94.80;;;;;;5059003;28;20032;-84
2021/04/16 05:45:00;;;;;;;25.90;18.13;;;10.50;94.80;;;;;;5059163;28;20493;-84
2021/04/16 05:47:29;;;;;;;40.38;26.33;;;10.50;94.80;;;;;;5058662;28;20127;-85
2021/04/16 05:49:54;;;;;;;26.85;18.77;;;10.50;94.80;;;;;;5058629;28;20542;-84
2021/04/16 05:52:20;;;;;;;33.00;20.85;;;10.50;94.70;;;;;;5056847;28;20159;-83
2021/04/16 05:54:47;;;;;;;25.73;17.05;;;10.50;94.80;;;;;;5058183;28;20024;-84
2021/04/16 05:57:12;;;;;;;45.30;27.30;;;10.60;94.80;;;;;;5057913;28;20033;-85
2021/04/16 05:59:38;;;;;;;36.40;23.27;;;10.60;94.80;;;;;;5057859;28;20036;-84
2021/04/16 06:02:21;;;;;;;30.17;18.38;;;10.60;94.90;;;;;;5057878;28;20043;-84
2021/04/16 06:04:47;;;;;;;26.27;16.63;;;10.70;94.90;;;;;;5057830;28;20132;-83
2021/04/16 06:07:13;;;;;;;24.42;17.55;;;10.70;94.80;;;;;;5058123;28;20120;-84
2021/04/16 06:09:38;;;;;;;28.42;20.55;;;10.80;94.80;;;;;;5058055;28;20541;-83
2021/04/16 06:12:04;;;;;;;25.77;18.80;;;10.80;94.80;;;;;;5057922;28;20367;-83
2021/04/16 06:14:30;;;;;;;24.00;18.88;;;10.80;94.80;;;;;;5057820;28;20115;-84
2021/04/16 06:16:56;;;;;;;24.50;17.38;;;10.80;94.80;;;;;;5057766;28;20124;-84
2021/04/16 06:19:21;;;;;;;24.42;18.20;;;10.90;94.70;;;;;;5075845;28;20052;-84
2021/04/16 06:21:47;;;;;;;23.00;15.38;;;11.00;94.60;;;;;;5057627;28;20033;-84
2021/04/16 06:24:12;;;;;;;21.58;16.90;;;11.00;94.50;;;;;;5057766;28;20029;-84
2021/04/16 06:26:38;;;;;;;27.80;18.05;;;11.00;94.40;;;;;;5058012;28;20029;-84
2021/04/16 06:29:05;;;;;;;22.92;17.73;;;11.20;94.40;;;;;;5057977;28;20115;-84
2021/04/16 06:31:31;;;;;;;27.17;19.95;;;11.20;94.40;;;;;;5057884;28;20500;-85
2021/04/16 06:33:57;;;;;;;28.58;21.15;;;11.30;94.30;;;;;;5057969;28;20039;-83
2021/04/16 06:36:23;;;;;;;31.90;23.88;;;11.30;94.10;;;;;;5073610;28;20044;-85
2021/04/16 06:38:49;;;;;;;33.17;25.55;;;11.40;94.00;;;;;;5078079;28;20028;-84
2021/04/16 06:41:19;;;;;;;30.45;23.50;;;11.40;94.00;;;;;;5078037;28;20086;-84
2021/04/16 06:43:50;;;;;;;;;;;11.40;93.90;;;;;;5078079;28;20055;-84
2021/04/16 06:46:27;;;;;;;37.85;27.80;;;11.40;93.80;;;;;;5095891;28;19969;-85
2021/04/16 06:49:02;;;;;;;31.30;24.73;;;11.40;93.70;;;;;;5077502;28;20036;-84
2021/04/16 06:51:30;;;;;;;32.17;23.50;;;11.40;93.70;;;;;;5077205;28;20436;-84
2021/04/16 06:54:05;;;;;;;32.58;24.77;;;11.50;93.60;;;;;;5077512;28;20028;-85
2021/04/16 06:56:39;;;;;;;25.77;19.52;;;11.50;93.40;;;;;;5077420;28;20032;-85
2021/04/16 06:59:21;;;;;;;28.60;19.17;;;11.60;93.40;;;;;;5077395;28;20035;-84
2021/04/16 07:01:49;;;;;;;23.08;17.17;;;11.50;93.10;;;;;;5077100;28;20028;-84
2021/04/16 07:04:31;;;;;;;35.45;26.20;;;11.70;93.00;;;;;;5076668;28;20028;-84
2021/04/16 07:07:06;;;;;;;42.15;29.58;;;11.70;92.80;;;;;;5077081;28;20442;-84
2021/04/16 07:09:36;;;;;;;46.05;33.70;;;11.80;93.00;;;;;;5094920;28;20169;-85
2021/04/16 07:12:16;;;;;;;38.20;28.85;;;11.90;92.90;;;;;;5077343;28;20032;-85
2021/04/16 07:14:51;;;;;;;35.45;22.33;;;12.00;92.20;;;;;;5078055;28;20028;-84
2021/04/16 07:17:20;;;;;;;33.00;22.30;;;12.10;92.10;;;;;;5101653;28;20465;-84
2021/04/16 07:19:47;;;;;;;35.40;22.45;;;12.20;92.50;;;;;;5095019;28;20176;-84
2021/04/16 07:22:32;;;;;;;42.88;25.35;;;12.40;92.50;;;;;;5094843;28;20043;-84
2021/04/16 07:24:58;;;;;;;38.15;24.08;;;12.40;92.30;;;;;;5076656;28;20032;-84
2021/04/16 07:27:46;;;;;;;43.72;24.67;;;12.50;92.20;;;;;;5076207;28;20515;-84
2021/04/16 07:30:29;;;;;;;60.70;27.52;;;12.40;91.90;;;;;;5102639;28;20042;-83
2021/04/16 07:32:55;;;;;;;80.40;30.55;;;12.40;92.00;;;;;;5076580;28;20142;-84
2021/04/16 07:35:22;;;;;;;84.20;30.83;;;12.40;92.10;;;;;;5076182;28;20105;-85
2021/04/16 07:38:00;;;;;;;80.43;30.77;;;12.30;92.10;;;;;;5076019;28;20123;-84
2021/04/16 07:40:28;;;;;;;43.20;22.23;;;12.20;92.20;;;;;;5076251;28;20032;-84
2021/04/16 07:42:54;;;;;;;39.65;21.75;;;12.10;92.20;;;;;;5094150;28;20425;-84
2021/04/16 07:45:25;;;;;;;43.97;23.98;;;12.10;92.30;;;;;;5076305;28;20032;-85
2021/04/16 07:48:14;;;;;;;42.60;24.70;;;12.10;92.50;;;;;;5076492;28;20042;-84
2021/04/16 07:50:45;;;;;;;34.97;21.15;;;12.20;92.40;;;;;;5068829;28;20556;-84
2021/04/16 07:53:40;;;;;;;40.55;23.27;;;12.40;92.40;;;;;;5075950;28;20036;-83
2021/04/16 07:56:15;;;;;;;34.75;21.67;;;12.50;91.80;;;;;;5068639;28;20028;-84
2021/04/16 07:58:46;;;;;;;46.35;25.05;;;12.70;92.10;;;;;;5075856;28;20173;-84
2021/04/16 08:01:20;;;;;;;32.67;20.40;;;12.80;91.80;;;;;;5075655;28;20032;-84
2021/04/16 08:03:50;;;;;;;43.63;23.60;;;12.90;91.50;;;;;;5075717;28;20059;-84
2021/04/16 08:06:29;;;;;;;61.88;32.95;;;12.90;91.60;;;;;;5093993;28;20028;-84
2021/04/16 08:08:56;;;;;;;56.27;28.83;;;12.90;91.70;;;;;;5075777;28;20119;-84
2021/04/16 08:11:33;;;;;;;38.03;22.92;;;12.90;91.70;;;;;;5075645;28;20090;-84
2021/04/16 08:14:24;;;;;;;36.90;24.38;;;12.90;91.80;;;;;;5075161;28;20036;-84
2021/04/16 08:17:03;;;;;;;32.17;22.02;;;12.90;91.90;;;;;;5108978;28;20044;-84
2021/04/16 08:19:38;;;;;;;43.05;23.02;;;13.00;92.00;;;;;;5075612;28;20028;-83
2021/04/16 08:22:06;;;;;;;66.18;28.02;;;13.10;92.10;;;;;;5075391;28;20161;-84
2021/04/16 08:25:01;;;;;;;88.03;32.50;;;13.10;92.10;;;;;;5075520;28;20055;-84
2021/04/16 08:27:44;;;;;;;59.42;27.33;;;13.00;92.20;;;;;;5075865;28;20088;-85
2021/04/16 08:30:24;;;;;;;57.80;27.25;;;13.10;92.00;;;;;;5075500;28;20060;-84
2021/04/16 08:33:01;;;;;;;33.10;20.92;;;13.10;92.20;;;;;;5076719;28;20032;-84
2021/04/16 08:35:37;;;;;;;24.77;17.77;;;13.10;92.10;;;;;;5075659;28;20066;-84
2021/04/16 08:38:09;;;;;;;23.08;16.13;;;13.00;91.90;;;;;;5093912;28;20032;-85
2021/04/16 08:40:39;;;;;;;21.02;14.27;;;12.90;91.90;;;;;;5094180;28;20031;-85
2021/04/16 08:43:08;;;;;;;19.05;14.27;;;12.80;92.10;;;;;;5075875;28;20044;-85
2021/04/16 08:45:37;;;;;;;18.35;14.27;;;12.60;92.20;;;;;;5093951;28;20039;-85
2021/04/16 08:48:22;;;;;;;18.38;13.05;;;12.50;92.40;;;;;;5075859;28;20398;-84
2021/04/16 08:50:53;;;;;;;22.83;14.15;;;12.50;92.60;;;;;;5075776;28;20115;-86
2021/04/16 08:53:19;;;;;;;19.65;14.52;;;12.50;92.70;;;;;;5094604;28;20030;-85
2021/04/16 08:55:48;;;;;;;21.42;15.45;;;12.50;93.20;;;;;;5094055;28;20049;-85
2021/04/16 08:58:26;;;;;;;21.38;14.90;;;12.50;93.10;;;;;;5076140;28;20513;-85
2021/04/16 09:00:57;;;;;;;20.52;14.27;;;12.50;93.40;;;;;;5091839;28;20040;-84
2021/04/16 09:03:38;;;;;;;21.17;14.23;;;12.50;93.10;;;;;;5075494;28;20041;-85
2021/04/16 09:06:05;;;;;;;17.83;13.15;;;12.50;93.00;;;;;;5075556;28;20390;-85
2021/04/16 09:08:41;;;;;;;18.50;13.52;;;12.50;93.10;;;;;;5075422;28;20066;-85
2021/04/16 09:11:10;;;;;;;17.40;12.55;;;12.50;93.00;;;;;;5075351;28;20436;-85
2021/04/16 09:13:47;;;;;;;17.17;13.38;;;12.50;92.90;;;;;;5076003;28;20024;-85
2021/04/16 09:16:15;;;;;;;15.15;11.73;;;12.50;92.90;;;;;;5093548;28;20036;-85
2021/04/16 09:18:43;;;;;;;12.68;10.63;;;12.50;93.10;;;;;;5075653;28;20037;-85
2021/04/16 09:21:12;;;;;;;16.38;10.70;;;12.60;93.10;;;;;;5075469;28;20032;-85
2021/04/16 09:23:37;;;;;;;12.23;9.93;;;12.70;93.00;;;;;;5075252;28;20482;-85
2021/04/16 09:26:03;;;;;;;12.10;9.10;;;12.70;92.80;;;;;;5110331;28;20047;-86
2021/04/16 09:28:48;;;;;;;10.45;9.07;;;12.80;92.80;;;;;;5097594;28;20060;-85
2021/04/16 09:31:27;;;;;;;11.65;8.82;;;12.80;92.70;;;;;;5078985;28;20040;-85
2021/04/16 09:34:14;;;;;;;11.05;8.68;;;13.00;92.80;;;;;;5113250;28;20029;-85
2021/04/16 09:36:39;;;;;;;9.88;8.13;;;13.10;92.90;;;;;;5112720;28;20068;-85
2021/04/16 09:39:34;;;;;;;9.65;8.63;;;13.10;92.70;;;;;;5112912;28;20414;-86
2021/04/16 09:42:08;;;;;;;8.45;7.15;;;13.10;92.40;;;;;;5075971;28;20035;-86
2021/04/16 09:44:42;;;;;;;8.10;7.03;;;13.10;92.20;;;;;;5079010;28;20457;-85
2021/04/16 09:47:08;;;;;;;9.85;8.55;;;13.00;92.20;;;;;;5078942;28;20056;-85
2021/04/16 09:49:56;;;;;;;11.18;8.32;;;12.90;92.10;;;;;;5078841;28;20036;-85
2021/04/16 09:52:33;;;;;;;7.75;5.80;;;12.60;91.90;;;;;;5078706;28;20052;-85
2021/04/16 09:54:59;;;;;;;7.28;4.50;;;12.20;91.60;;;;;;5115187;28;20149;-84
2021/04/16 09:57:39;;;;;;;4.97;3.63;;;12.10;91.50;;;;;;5079731;28;20036;-84
2021/04/16 10:00:36;;;;;;;8.00;5.00;;;11.80;91.50;;;;;;5081032;28;20077;-84
2021/04/16 10:03:20;;;;;;;7.05;4.50;;;11.40;92.30;;;;;;5053915;28;20032;-81
2021/04/16 10:05:46;;;;;;;8.25;4.60;;;11.30;92.40;;;;;;5096085;28;20794;-82
2021/04/16 10:08:22;;;;;;;6.88;3.63;;;11.20;92.70;;;;;;5078136;28;20103;-81
2021/04/16 10:10:48;;;;;;;7.53;5.15;;;11.10;92.90;;;;;;5078016;28;20062;-81
2021/04/16 10:13:18;;;;;;;12.23;6.65;;;11.00;93.00;;;;;;5078331;28;20048;-81
2021/04/16 10:15:51;;;;;;;15.98;11.90;;;10.90;93.20;;;;;;5096040;28;20035;-81
2021/04/16 10:18:39;;;;;;;9.05;6.18;;;10.60;93.30;;;;;;5096092;28;20103;-82
2021/04/16 10:21:15;;;;;;;8.80;6.03;;;10.40;93.10;;;;;;5078104;28;20036;-84
2021/04/16 10:24:15;;;;;;;8.93;5.35;;;10.40;93.50;;;;;;5111975;28;20036;-83
2021/04/16 10:42:15;;;;;;;13.38;7.68;;;10.90;94.20;;;;;;5077521;28;20352;-84
2021/04/16 12:41:20;;;;;;;2.45;2.25;;;10.20;93.00;;;;;;5064508;28;19904;-85
2021/04/16 12:43:47;;;;;;;2.53;2.30;;;10.20;92.70;;;;;;5056311;28;20047;-89
2021/04/16 12:46:16;;;;;;;2.95;2.50;;;10.10;92.90;;;;;;5055941;28;20033;-86
2021/04/16 12:48:42;;;;;;;4.35;2.78;;;10.10;92.50;;;;;;5055934;28;20038;-85
2021/04/16 12:51:09;;;;;;;4.28;3.08;;;9.70;92.90;;;;;;5055483;28;20029;-85
2021/04/16 12:53:34;;;;;;;2.80;2.60;;;9.60;92.80;;;;;;5055735;28;20029;-82
2021/04/16 12:56:01;;;;;;;4.53;3.78;;;9.50;93.10;;;;;;5055543;28;20120;-83
2021/04/16 12:58:30;;;;;;;4.68;3.58;;;9.40;93.20;;;;;;5055798;28;20036;-80
2021/04/16 13:00:57;;;;;;;7.70;4.40;;;9.30;93.20;;;;;;5056192;28;20119;-83
2021/04/16 13:03:36;;;;;;;3.90;3.40;;;9.20;93.10;;;;;;5077792;28;20522;-83
2021/04/16 13:06:03;;;;;;;4.75;3.92;;;9.10;93.30;;;;;;5077442;28;20036;-82
2021/04/16 13:08:30;;;;;;;4.43;3.53;;;9.10;93.40;;;;;;5059307;28;20036;-84
2021/04/16 13:10:55;;;;;;;4.53;3.45;;;9.20;93.30;;;;;;5077000;28;20093;-83
2021/04/16 13:13:21;;;;;;;3.78;3.33;;;9.30;93.40;;;;;;5077109;28;20417;-84
2021/04/16 13:15:48;;;;;;;4.25;3.10;;;9.10;93.30;;;;;;5059738;28;20162;-88
2021/04/16 13:18:24;;;;;;;3.83;3.40;;;9.20;93.30;;;;;;5059645;28;20037;-89
2021/04/16 13:20:51;;;;;;;4.90;3.22;;;9.20;93.50;;;;;;5077381;28;20537;-89
2021/04/16 13:23:16;;;;;;;4.38;3.25;;;9.30;93.10;;;;;;5059613;28;20041;-90
2021/04/16 13:25:43;;;;;;;4.32;3.58;;;9.20;92.90;;;;;;5060003;28;20090;-88
2021/04/16 13:28:10;;;;;;;6.28;3.50;;;9.20;93.10;;;;;;5059590;28;20060;-88
2021/04/16 13:30:36;;;;;;;4.38;3.30;;;9.30;93.00;;;;;;5059947;28;20036;-89
2021/04/16 13:33:11;;;;;;;4.20;3.50;;;9.30;92.80;;;;;;5060182;28;20561;-91
2021/04/16 13:35:42;;;;;;;4.13;3.50;;;9.40;93.10;;;;;;5067285;28;20059;-84
2021/04/16 13:38:21;;;;;;;4.80;3.65;;;9.30;92.80;;;;;;5113386;28;20036;-84
2021/04/16 13:40:48;;;;;;;5.25;3.67;;;9.20;92.60;;;;;;5079496;28;20482;-88
2021/04/16 13:43:14;;;;;;;4.82;3.83;;;9.00;92.50;;;;;;5079356;28;20039;-86
2021/04/16 13:45:40;;;;;;;5.32;4.15;;;9.00;92.50;;;;;;5079128;28;20082;-87
2021/04/16 13:48:07;;;;;;;4.50;3.45;;;9.00;92.30;;;;;;5080000;28;20028;-84
2021/04/16 13:50:33;;;;;;;4.80;3.60;;;8.80;93.00;;;;;;5085415;28;20028;-88
2021/04/16 13:52:59;;;;;;;6.13;3.58;;;8.80;92.80;;;;;;5099951;28;20173;-91
2021/04/16 13:55:26;;;;;;;5.85;3.55;;;8.80;93.10;;;;;;5099648;28;20039;-81
2021/04/16 13:57:52;;;;;;;5.00;3.75;;;8.90;92.90;;;;;;5118022;28;20019;-90
2021/04/16 14:00:21;;;;;;;3.15;2.58;;;9.00;92.70;;;;;;5099522;28;20038;-90
2021/04/16 14:03:18;;;;;;;3.43;2.83;;;9.10;92.60;;;;;;5099027;28;20039;-89
2021/04/16 14:05:49;;;;;;;5.28;3.70;;;9.20;92.30;;;;;;5081407;28;20036;-91
2021/04/16 14:08:38;;;;;;;5.47;3.78;;;9.00;92.40;;;;;;5098953;28;20040;-90
2021/04/16 14:11:05;;;;;;;3.92;3.25;;;9.00;92.70;;;;;;5112789;28;20042;-81
2021/04/16 14:13:31;;;;;;;14.13;5.97;;;8.90;92.50;;;;;;5098071;28;20389;-83
2021/04/16 14:16:02;;;;;;;3.95;3.35;;;9.10;92.20;;;;;;5098760;28;20120;-89
2021/04/16 14:18:42;;;;;;;6.88;3.97;;;9.00;92.30;;;;;;5115782;28;20054;-85
2021/04/16 14:21:13;;;;;;;4.78;3.60;;;8.90;92.40;;;;;;5099032;28;20047;-88
2021/04/16 14:23:39;;;;;;;6.03;3.33;;;9.00;92.10;;;;;;5098843;28;20061;-89
2021/04/16 14:26:06;;;;;;;5.47;4.10;;;8.90;91.90;;;;;;5098661;28;20920;-90
2021/04/16 14:28:34;;;;;;;5.38;3.25;;;8.90;91.80;;;;;;5098752;28;20028;-91
2021/04/16 14:31:00;;;;;;;5.35;3.40;;;8.70;92.00;;;;;;5096938;28;20088;-90
2021/04/16 14:33:33;;;;;;;4.28;3.40;;;8.60;92.00;;;;;;5098785;28;20126;-90
2021/04/16 14:35:59;;;;;;;3.67;3.15;;;8.40;92.30;;;;;;5098121;28;20055;-90
2021/04/16 14:38:26;;;;;;;3.38;2.80;;;8.50;92.10;;;;;;5098843;28;20396;-90
2021/04/16 14:40:52;;;;;;;5.35;3.60;;;8.40;92.00;;;;;;5103877;28;20504;-92
2021/04/16 14:43:19;;;;;;;4.57;3.72;;;8.40;92.20;;;;;;5115634;28;20057;-92
2021/04/16 14:45:47;;;;;;;5.82;3.95;;;8.40;92.20;;;;;;5115529;28;20039;-88
2021/04/16 14:48:14;;;;;;;10.73;5.82;;;8.30;91.80;;;;;;5116567;28;20481;-88
2021/04/16 14:50:40;;;;;;;38.38;20.27;;;8.10;92.40;;;;;;5115696;28;20036;-77
2021/04/16 14:53:34;;;;;;;7.43;5.05;;;8.10;92.50;;;;;;5099593;28;20032;-76
2021/04/16 14:56:07;;;;;;;4.45;3.20;;;8.00;92.60;;;;;;5104475;28;20067;-74
2021/04/16 14:58:40;;;;;;;3.40;2.42;;;7.90;92.50;;;;;;5097303;28;20381;-76
2021/04/16 15:01:07;;;;;;;4.05;3.00;;;8.00;92.10;;;;;;5115603;28;20062;-76
2021/04/16 15:03:34;;;;;;;3.83;2.30;;;7.90;92.00;;;;;;5115596;28;20120;-76
2021/04/16 15:06:04;;;;;;;5.05;3.63;;;7.90;91.90;;;;;;5097301;28;20446;-75